Terminal Aerodrome Forecast
Issued by NWS

Home | Current Version | Previous Version | Text Only | Print | Product List | Glossary On
Versions: 1 2 3 4 5 6 7 8 9 10 11 12 13 14
000
FTUS43 KGRB 191724
TAFMTW
TAF
KMTW 191724Z 1918/2018 13005KT P6SM SCT250
     FM200200 11005KT P6SM SCT250
     FM201100 10006KT 5SM BR BKN150
     FM201500 13008G14KT 4SM BR SCT012 BKN110=

USA.gov is the U.S. government's official web portal to all federal, state and local government web resources and services.